sensor_id;sensor_type;location;lat;lon;timestamp;pressure;altitude;pressure_sealevel;temperature;humidity
8334;BME280;4204;43.004;23.052;2022-12-07T00:00:55;93738.69;;;7.21;100.00
8334;BME280;4204;43.004;23.052;2022-12-07T00:03:23;93744.78;;;7.21;100.00
8334;BME280;4204;43.004;23.052;2022-12-07T00:05:52;93733.09;;;7.22;100.00
8334;BME280;4204;43.004;23.052;2022-12-07T00:08:19;93728.69;;;7.04;100.00
8334;BME280;4204;43.004;23.052;2022-12-07T00:10:48;93728.00;;;6.99;100.00
8334;BME280;4204;43.004;23.052;2022-12-07T00:13:16;93732.50;;;6.85;100.00
8334;BME280;4204;43.004;23.052;2022-12-07T00:15:44;93726.88;;;6.73;100.00
8334;BME280;4204;43.004;23.052;2022-12-07T00:18:12;93720.78;;;6.59;100.00
8334;BME280;4204;43.004;23.052;2022-12-07T00:20:39;93725.97;;;6.64;100.00
8334;BME280;4204;43.004;23.052;2022-12-07T00:23:08;93721.97;;;6.66;100.00
8334;BME280;4204;43.004;23.052;2022-12-07T00:25:36;93717.75;;;6.65;100.00
8334;BME280;4204;43.004;23.052;2022-12-07T00:28:04;93725.97;;;6.64;100.00
8334;BME280;4204;43.004;23.052;2022-12-07T00:30:33;93730.56;;;6.58;100.00
8334;BME280;4204;43.004;23.052;2022-12-07T00:33:00;93720.78;;;6.59;100.00
8334;BME280;4204;43.004;23.052;2022-12-07T00:35:28;93712.16;;;6.67;100.00
8334;BME280;4204;43.004;23.052;2022-12-07T00:37:56;93716.63;;;6.98;100.00
8334;BME280;4204;43.004;23.052;2022-12-07T00:40:25;93712.13;;;7.12;100.00
8334;BME280;4204;43.004;23.052;2022-12-07T00:42:52;93724.41;;;7.22;100.00
8334;BME280;4204;43.004;23.052;2022-12-07T00:45:20;93731.44;;;7.40;100.00
8334;BME280;4204;43.004;23.052;2022-12-07T00:47:48;93733.72;;;7.19;100.00
8334;BME280;4204;43.004;23.052;2022-12-07T00:50:15;93733.22;;;7.17;100.00
8334;BME280;4204;43.004;23.052;2022-12-07T00:52:43;93726.34;;;7.16;100.00
8334;BME280;4204;43.004;23.052;2022-12-07T00:55:11;93721.34;;;7.15;100.00
8334;BME280;4204;43.004;23.052;2022-12-07T00:57:40;93729.69;;;7.22;100.00
8334;BME280;4204;43.004;23.052;2022-12-07T01:00:08;93730.34;;;7.14;100.00
8334;BME280;4204;43.004;23.052;2022-12-07T01:02:36;93730.84;;;7.02;100.00
8334;BME280;4204;43.004;23.052;2022-12-07T01:05:04;93720.16;;;6.94;100.00
8334;BME280;4204;43.004;23.052;2022-12-07T01:07:32;93709.75;;;6.84;100.00
8334;BME280;4204;43.004;23.052;2022-12-07T01:10:00;93702.69;;;6.79;100.00
8334;BME280;4204;43.004;23.052;2022-12-07T01:12:27;93707.44;;;6.96;100.00
8334;BME280;4204;43.004;23.052;2022-12-07T01:14:56;93702.84;;;7.01;100.00
8334;BME280;4204;43.004;23.052;2022-12-07T01:17:24;93707.91;;;6.98;100.00
8334;BME280;4204;43.004;23.052;2022-12-07T01:19:52;93704.97;;;6.86;100.00
8334;BME280;4204;43.004;23.052;2022-12-07T01:22:20;93700.66;;;6.76;100.00
8334;BME280;4204;43.004;23.052;2022-12-07T01:24:48;93698.69;;;6.82;100.00
8334;BME280;4204;43.004;23.052;2022-12-07T01:27:16;93682.91;;;6.63;100.00
8334;BME280;4204;43.004;23.052;2022-12-07T01:29:43;93697.09;;;6.67;100.00
8334;BME280;4204;43.004;23.052;2022-12-07T01:32:12;93691.44;;;6.74;100.00
8334;BME280;4204;43.004;23.052;2022-12-07T01:34:40;93695.19;;;7.00;100.00
8334;BME280;4204;43.004;23.052;2022-12-07T01:37:07;93689.69;;;7.10;100.00
8334;BME280;4204;43.004;23.052;2022-12-07T01:39:35;93688.41;;;7.34;100.00
8334;BME280;4204;43.004;23.052;2022-12-07T01:42:03;93689.00;;;7.45;100.00
8334;BME280;4204;43.004;23.052;2022-12-07T01:44:31;93684.31;;;7.28;100.00
8334;BME280;4204;43.004;23.052;2022-12-07T01:47:01;93678.34;;;7.23;100.00
8334;BME280;4204;43.004;23.052;2022-12-07T01:49:35;93683.63;;;7.23;100.00
8334;BME280;4204;43.004;23.052;2022-12-07T01:52:12;93681.59;;;7.20;100.00
8334;BME280;4204;43.004;23.052;2022-12-07T01:54:41;93677.16;;;7.02;100.00
8334;BME280;4204;43.004;23.052;2022-12-07T01:57:10;93674.34;;;6.85;100.00
8334;BME280;4204;43.004;23.052;2022-12-07T01:59:39;93671.84;;;6.75;100.00
8334;BME280;4204;43.004;23.052;2022-12-07T02:02:10;93669.94;;;6.80;100.00
8334;BME280;4204;43.004;23.052;2022-12-07T02:04:40;93671.84;;;6.75;100.00
8334;BME280;4204;43.004;23.052;2022-12-07T02:07:08;93669.94;;;6.80;100.00
8334;BME280;4204;43.004;23.052;2022-12-07T02:09:36;93670.59;;;6.72;100.00
8334;BME280;4204;43.004;23.052;2022-12-07T02:12:04;93662.06;;;6.75;100.00
8334;BME280;4204;43.004;23.052;2022-12-07T02:14:32;93658.75;;;6.70;100.00
8334;BME280;4204;43.004;23.052;2022-12-07T02:17:08;93657.56;;;6.76;100.00
8334;BME280;4204;43.004;23.052;2022-12-07T02:23:12;93652.28;;;6.76;100.00
8334;BME280;4204;43.004;23.052;2022-12-07T02:26:07;93660.63;;;6.83;100.00
8334;BME280;4204;43.004;23.052;2022-12-07T02:29:00;93651.91;;;7.09;100.00
8334;BME280;4204;43.004;23.052;2022-12-07T02:31:33;93648.66;;;7.26;100.00
8334;BME280;4204;43.004;23.052;2022-12-07T02:34:05;93656.00;;;7.29;100.00
8334;BME280;4204;43.004;23.052;2022-12-07T02:36:39;93656.00;;;7.29;100.00
8334;BME280;4204;43.004;23.052;2022-12-07T02:39:13;93649.38;;;7.18;100.00
8334;BME280;4204;43.004;23.052;2022-12-07T02:41:44;93649.06;;;7.19;100.00
8334;BME280;4204;43.004;23.052;2022-12-07T02:44:18;93639.19;;;7.11;100.00
8334;BME280;4204;43.004;23.052;2022-12-07T02:46:51;93645.44;;;7.15;100.00
8334;BME280;4204;43.004;23.052;2022-12-07T02:49:22;93638.78;;;7.18;100.00
8334;BME280;4204;43.004;23.052;2022-12-07T02:51:52;93629.56;;;7.02;100.00
8334;BME280;4204;43.004;23.052;2022-12-07T02:54:20;93605.41;;;6.68;100.00
8334;BME280;4204;43.004;23.052;2022-12-07T02:56:53;93625.56;;;6.77;100.00
8334;BME280;4204;43.004;23.052;2022-12-07T02:59:35;93629.38;;;6.71;100.00
8334;BME280;4204;43.004;23.052;2022-12-07T03:02:14;93631.16;;;6.76;100.00
8334;BME280;4204;43.004;23.052;2022-12-07T03:04:52;93624.28;;;6.75;100.00
8334;BME280;4204;43.004;23.052;2022-12-07T03:07:28;93620.19;;;6.82;100.00
8334;BME280;4204;43.004;23.052;2022-12-07T03:10:01;93613.72;;;6.75;100.00
8334;BME280;4204;43.004;23.052;2022-12-07T03:12:35;93623.22;;;6.89;100.00
8334;BME280;4204;43.004;23.052;2022-12-07T03:15:10;93623.03;;;6.72;100.00
8334;BME280;4204;43.004;23.052;2022-12-07T03:17:40;93624.59;;;6.73;100.00
8334;BME280;4204;43.004;23.052;2022-12-07T03:20:12;93613.22;;;6.73;100.00
8334;BME280;4204;43.004;23.052;2022-12-07T03:22:42;93624.00;;;6.76;100.00
8334;BME280;4204;43.004;23.052;2022-12-07T03:25:14;93614.31;;;6.72;100.00
8334;BME280;4204;43.004;23.052;2022-12-07T03:27:48;93621.63;;;6.75;100.00
8334;BME280;4204;43.004;23.052;2022-12-07T03:30:22;93627.63;;;7.07;100.00
8334;BME280;4204;43.004;23.052;2022-12-07T03:32:56;93629.47;;;7.20;100.00
8334;BME280;4204;43.004;23.052;2022-12-07T03:35:29;93629.19;;;7.22;100.00
8334;BME280;4204;43.004;23.052;2022-12-07T03:38:00;93625.63;;;7.26;100.00
8334;BME280;4204;43.004;23.052;2022-12-07T03:40:36;93620.56;;;7.16;100.00
8334;BME280;4204;43.004;23.052;2022-12-07T03:43:05;93617.81;;;7.08;100.00
8334;BME280;4204;43.004;23.052;2022-12-07T03:45:38;93613.72;;;7.02;100.00
8334;BME280;4204;43.004;23.052;2022-12-07T03:48:08;93612.94;;;7.01;100.00
8334;BME280;4204;43.004;23.052;2022-12-07T03:50:44;93621.84;;;7.05;100.00
8334;BME280;4204;43.004;23.052;2022-12-07T03:53:19;93623.44;;;6.93;100.00
8334;BME280;4204;43.004;23.052;2022-12-07T03:55:50;93614.13;;;6.82;100.00
8334;BME280;4204;43.004;23.052;2022-12-07T03:58:20;93609.41;;;6.65;100.00
8334;BME280;4204;43.004;23.052;2022-12-07T04:00:50;93617.63;;;6.77;100.00
8334;BME280;4204;43.004;23.052;2022-12-07T04:03:19;93623.53;;;6.74;100.00
8334;BME280;4204;43.004;23.052;2022-12-07T04:05:47;93625.19;;;6.70;100.00
8334;BME280;4204;43.004;23.052;2022-12-07T04:08:14;93630.16;;;6.72;100.00
8334;BME280;4204;43.004;23.052;2022-12-07T04:10:42;93617.53;;;6.69;100.00
8334;BME280;4204;43.004;23.052;2022-12-07T04:13:10;93621.16;;;6.73;100.00
8334;BME280;4204;43.004;23.052;2022-12-07T04:15:37;93597.38;;;6.45;100.00
8334;BME280;4204;43.004;23.052;2022-12-07T04:18:06;93617.44;;;6.74;100.00
8334;BME280;4204;43.004;23.052;2022-12-07T04:20:34;93613.31;;;6.81;100.00
8334;BME280;4204;43.004;23.052;2022-12-07T04:23:02;93600.41;;;6.80;100.00
8334;BME280;4204;43.004;23.052;2022-12-07T04:25:30;93617.25;;;7.11;100.00
8334;BME280;4204;43.004;23.052;2022-12-07T04:27:57;93615.75;;;7.18;100.00
8334;BME280;4204;43.004;23.052;2022-12-07T04:30:25;93615.25;;;7.16;100.00
8334;BME280;4204;43.004;23.052;2022-12-07T04:32:53;93615.63;;;7.73;100.00
8334;BME280;4204;43.004;23.052;2022-12-07T04:35:22;93624.47;;;7.90;100.00
8334;BME280;4204;43.004;23.052;2022-12-07T04:37:50;93623.50;;;7.86;100.00
8334;BME280;4204;43.004;23.052;2022-12-07T04:40:18;93620.63;;;7.74;100.00
8334;BME280;4204;43.004;23.052;2022-12-07T04:42:45;93617.72;;;7.62;100.00
8334;BME280;4204;43.004;23.052;2022-12-07T04:45:13;93624.50;;;7.55;100.00
8334;BME280;4204;43.004;23.052;2022-12-07T04:47:41;93623.19;;;7.30;100.00
8334;BME280;4204;43.004;23.052;2022-12-07T04:50:10;93621.16;;;7.00;100.00
8334;BME280;4204;43.004;23.052;2022-12-07T04:52:39;93609.59;;;6.96;100.00
8334;BME280;4204;43.004;23.052;2022-12-07T04:55:07;93623.78;;;7.00;100.00
8334;BME280;4204;43.004;23.052;2022-12-07T04:57:35;93599.25;;;6.99;100.00
8334;BME280;4204;43.004;23.052;2022-12-07T05:00:03;93611.66;;;6.99;100.00
8334;BME280;4204;43.004;23.052;2022-12-07T05:02:30;93614.47;;;7.16;100.00
8334;BME280;4204;43.004;23.052;2022-12-07T05:04:58;93621.16;;;7.00;100.00
8334;BME280;4204;43.004;23.052;2022-12-07T05:07:26;93624.59;;;6.87;100.00
8334;BME280;4204;43.004;23.052;2022-12-07T05:09:55;93624.97;;;6.94;100.00
8334;BME280;4204;43.004;23.052;2022-12-07T05:12:22;93629.78;;;6.92;100.00
8334;BME280;4204;43.004;23.052;2022-12-07T05:14:50;93630.16;;;7.12;100.00
8334;BME280;4204;43.004;23.052;2022-12-07T05:17:18;93635.63;;;7.16;100.00
8334;BME280;4204;43.004;23.052;2022-12-07T05:19:45;93621.81;;;7.19;100.00
8334;BME280;4204;43.004;23.052;2022-12-07T05:22:13;93622.72;;;7.28;100.00
8334;BME280;4204;43.004;23.052;2022-12-07T05:24:41;93609.78;;;7.13;100.00
8334;BME280;4204;43.004;23.052;2022-12-07T05:27:10;93630.25;;;7.21;100.00
8334;BME280;4204;43.004;23.052;2022-12-07T05:29:38;93623.09;;;7.08;100.00
8334;BME280;4204;43.004;23.052;2022-12-07T05:32:06;93626.72;;;7.12;100.00
8334;BME280;4204;43.004;23.052;2022-12-07T05:34:33;93618.03;;;7.11;100.00
8334;BME280;4204;43.004;23.052;2022-12-07T05:37:01;93622.91;;;7.04;100.00
8334;BME280;4204;43.004;23.052;2022-12-07T05:39:29;93632.50;;;7.14;100.00
8334;BME280;4204;43.004;23.052;2022-12-07T05:41:56;93619.59;;;6.99;100.00
8334;BME280;4204;43.004;23.052;2022-12-07T05:44:41;93633.09;;;7.11;100.00
8334;BME280;4204;43.004;23.052;2022-12-07T05:47:09;93628.50;;;7.03;100.00
8334;BME280;4204;43.004;23.052;2022-12-07T05:49:37;93618.72;;;6.90;100.00
8334;BME280;4204;43.004;23.052;2022-12-07T05:52:05;93619.97;;;6.79;100.00
8334;BME280;4204;43.004;23.052;2022-12-07T05:54:33;93623.41;;;6.66;100.00
8334;BME280;4204;43.004;23.052;2022-12-07T05:57:01;93623.31;;;6.71;100.00
8334;BME280;4204;43.004;23.052;2022-12-07T05:59:28;93621.56;;;6.66;100.00
8334;BME280;4204;43.004;23.052;2022-12-07T06:01:58;93624.88;;;6.72;100.00
8334;BME280;4204;43.004;23.052;2022-12-07T06:04:29;93626.94;;;6.61;100.00
8334;BME280;4204;43.004;23.052;2022-12-07T06:06:57;93623.97;;;6.63;100.00
8334;BME280;4204;43.004;23.052;2022-12-07T06:09:26;93621.06;;;6.64;100.00
8334;BME280;4204;43.004;23.052;2022-12-07T06:11:54;93617.63;;;6.64;100.00
8334;BME280;4204;43.004;23.052;2022-12-07T06:14:39;93613.91;;;6.65;100.00
8334;BME280;4204;43.004;23.052;2022-12-07T06:17:09;93623.50;;;6.88;100.00
8334;BME280;4204;43.004;23.052;2022-12-07T06:19:37;93630.97;;;6.99;100.00
8334;BME280;4204;43.004;23.052;2022-12-07T06:22:05;93628.31;;;7.13;100.00
8334;BME280;4204;43.004;23.052;2022-12-07T06:24:33;93628.78;;;7.15;100.00
8334;BME280;4204;43.004;23.052;2022-12-07T06:27:00;93626.84;;;7.07;100.00
8334;BME280;4204;43.004;23.052;2022-12-07T06:29:28;93630.97;;;6.99;100.00
8334;BME280;4204;43.004;23.052;2022-12-07T06:31:56;93638.91;;;6.99;100.00
8334;BME280;4204;43.004;23.052;2022-12-07T06:34:26;93628.09;;;6.96;100.00
8334;BME280;4204;43.004;23.052;2022-12-07T06:36:54;93632.22;;;7.02;100.00
8334;BME280;4204;43.004;23.052;2022-12-07T06:39:23;93619.78;;;7.02;100.00
8334;BME280;4204;43.004;23.052;2022-12-07T06:41:52;93637.03;;;7.00;100.00
8334;BME280;4204;43.004;23.052;2022-12-07T06:44:20;93628.31;;;6.99;100.00
8334;BME280;4204;43.004;23.052;2022-12-07T06:46:49;93636.25;;;6.86;100.00
8334;BME280;4204;43.004;23.052;2022-12-07T06:49:17;93633.78;;;6.89;100.00
8334;BME280;4204;43.004;23.052;2022-12-07T06:51:46;93639.47;;;6.83;100.00
8334;BME280;4204;43.004;23.052;2022-12-07T06:54:15;93632.69;;;6.77;100.00
8334;BME280;4204;43.004;23.052;2022-12-07T06:56:43;93630.47;;;6.84;100.00
8334;BME280;4204;43.004;23.052;2022-12-07T06:59:10;93637.91;;;7.09;100.00
8334;BME280;4204;43.004;23.052;2022-12-07T07:01:38;93639.06;;;7.16;100.00
8334;BME280;4204;43.004;23.052;2022-12-07T07:04:06;93640.91;;;7.29;100.00
8334;BME280;4204;43.004;23.052;2022-12-07T07:06:33;93642.28;;;7.27;100.00
8334;BME280;4204;43.004;23.052;2022-12-07T07:09:02;93638.56;;;7.28;100.00
8334;BME280;4204;43.004;23.052;2022-12-07T07:11:30;93637.41;;;7.20;100.00
8334;BME280;4204;43.004;23.052;2022-12-07T07:13:58;93630.16;;;7.12;100.00
8334;BME280;4204;43.004;23.052;2022-12-07T07:16:28;93632.00;;;7.12;100.00
8334;BME280;4204;43.004;23.052;2022-12-07T07:18:57;93631.34;;;7.20;100.00
8334;BME280;4204;43.004;23.052;2022-12-07T07:21:24;93636.16;;;7.18;100.00
8334;BME280;4204;43.004;23.052;2022-12-07T07:23:52;93628.69;;;7.20;100.00
8334;BME280;4204;43.004;23.052;2022-12-07T07:26:21;93635.81;;;7.33;100.00
8334;BME280;4204;43.004;23.052;2022-12-07T07:28:49;93635.81;;;7.33;100.00
8334;BME280;4204;43.004;23.052;2022-12-07T07:31:16;93631.88;;;7.44;100.00
8334;BME280;4204;43.004;23.052;2022-12-07T07:33:45;93640.41;;;7.41;100.00
8334;BME280;4204;43.004;23.052;2022-12-07T07:36:13;93642.25;;;7.54;100.00
8334;BME280;4204;43.004;23.052;2022-12-07T07:38:41;93644.88;;;7.54;100.00
8334;BME280;4204;43.004;23.052;2022-12-07T07:41:09;93645.16;;;7.66;100.00
8334;BME280;4204;43.004;23.052;2022-12-07T07:43:38;93638.06;;;7.75;100.00
8334;BME280;4204;43.004;23.052;2022-12-07T07:46:05;93640.59;;;7.80;100.00
8334;BME280;4204;43.004;23.052;2022-12-07T07:48:33;93638.56;;;7.77;100.00
8334;BME280;4204;43.004;23.052;2022-12-07T07:51:05;93638.88;;;7.76;100.00
8334;BME280;4204;43.004;23.052;2022-12-07T07:53:32;93641.50;;;7.76;100.00
8334;BME280;4204;43.004;23.052;2022-12-07T07:56:00;93633.84;;;7.74;100.00
8334;BME280;4204;43.004;23.052;2022-12-07T07:58:28;93639.03;;;7.79;100.00
8334;BME280;4204;43.004;23.052;2022-12-07T08:00:57;93635.19;;;7.85;100.00
8334;BME280;4204;43.004;23.052;2022-12-07T08:03:30;93633.84;;;7.74;100.00
8334;BME280;4204;43.004;23.052;2022-12-07T08:05:58;93636.69;;;7.78;100.00
8334;BME280;4204;43.004;23.052;2022-12-07T08:08:25;93638.81;;;7.89;100.00
8334;BME280;4204;43.004;23.052;2022-12-07T08:10:53;93633.41;;;7.94;100.00
8334;BME280;4204;43.004;23.052;2022-12-07T08:13:21;93644.19;;;7.98;100.00
8334;BME280;4204;43.004;23.052;2022-12-07T08:15:49;93637.50;;;8.00;100.00
8334;BME280;4204;43.004;23.052;2022-12-07T08:18:18;93640.00;;;8.05;100.00
8334;BME280;4204;43.004;23.052;2022-12-07T08:20:46;93637.50;;;8.00;100.00
8334;BME280;4204;43.004;23.052;2022-12-07T08:23:13;93647.53;;;8.12;100.00
8334;BME280;4204;43.004;23.052;2022-12-07T08:25:41;93637.38;;;8.05;100.00
8334;BME280;4204;43.004;23.052;2022-12-07T08:28:09;93646.50;;;8.22;100.00
8334;BME280;4204;43.004;23.052;2022-12-07T08:30:37;93638.22;;;8.14;100.00
8334;BME280;4204;43.004;23.052;2022-12-07T08:33:04;93648.03;;;8.14;100.00
8334;BME280;4204;43.004;23.052;2022-12-07T08:35:34;93643.03;;;8.12;100.00
8334;BME280;4204;43.004;23.052;2022-12-07T08:38:02;93641.53;;;8.20;100.00
8334;BME280;4204;43.004;23.052;2022-12-07T08:40:30;93645.28;;;8.19;100.00
8334;BME280;4204;43.004;23.052;2022-12-07T08:42:57;93632.78;;;8.19;100.00
8334;BME280;4204;43.004;23.052;2022-12-07T08:45:25;93630.94;;;8.20;100.00
8334;BME280;4204;43.004;23.052;2022-12-07T08:47:57;93643.66;;;8.32;100.00
8334;BME280;4204;43.004;23.052;2022-12-07T08:50:27;93628.44;;;8.24;100.00
8334;BME280;4204;43.004;23.052;2022-12-07T08:52:58;93636.78;;;8.31;100.00
8334;BME280;4204;43.004;23.052;2022-12-07T08:55:27;93624.25;;;8.23;100.00
8334;BME280;4204;43.004;23.052;2022-12-07T08:57:57;93626.53;;;8.15;100.00
8334;BME280;4204;43.004;23.052;2022-12-07T09:00:25;93626.78;;;8.28;100.00
8334;BME280;4204;43.004;23.052;2022-12-07T09:02:53;93623.13;;;8.37;100.00
8334;BME280;4204;43.004;23.052;2022-12-07T09:05:21;93627.50;;;8.42;100.00
8334;BME280;4204;43.004;23.052;2022-12-07T09:07:51;93615.34;;;8.41;100.00
8334;BME280;4204;43.004;23.052;2022-12-07T09:10:23;93620.56;;;8.54;100.00
8334;BME280;4204;43.004;23.052;2022-12-07T09:12:50;93616.50;;;8.57;100.00
8334;BME280;4204;43.004;23.052;2022-12-07T09:15:18;93613.63;;;8.67;100.00
8334;BME280;4204;43.004;23.052;2022-12-07T09:17:46;93613.63;;;8.67;100.00
8334;BME280;4204;43.004;23.052;2022-12-07T09:20:13;93613.13;;;8.65;100.00
8334;BME280;4204;43.004;23.052;2022-12-07T09:22:41;93609.38;;;8.66;100.00
8334;BME280;4204;43.004;23.052;2022-12-07T09:25:09;93601.31;;;8.71;100.00
8334;BME280;4204;43.004;23.052;2022-12-07T09:27:38;93599.13;;;8.73;100.00
8334;BME280;4204;43.004;23.052;2022-12-07T09:30:07;93607.84;;;8.73;100.00
8334;BME280;4204;43.004;23.052;2022-12-07T09:32:34;93603.97;;;8.71;100.00
8334;BME280;4204;43.004;23.052;2022-12-07T09:35:03;93599.91;;;8.73;100.00
8334;BME280;4204;43.004;23.052;2022-12-07T09:37:30;93590.25;;;8.77;100.00
8334;BME280;4204;43.004;23.052;2022-12-07T09:40:01;93592.16;;;8.85;100.00
8334;BME280;4204;43.004;23.052;2022-12-07T09:42:33;93584.22;;;8.94;100.00
8334;BME280;4204;43.004;23.052;2022-12-07T09:45:05;93590.19;;;9.00;100.00
8334;BME280;4204;43.004;23.052;2022-12-07T09:47:33;93573.09;;;8.75;100.00
8334;BME280;4204;43.004;23.052;2022-12-07T09:50:05;93582.00;;;8.79;100.00
8334;BME280;4204;43.004;23.052;2022-12-07T09:52:33;93585.41;;;8.79;100.00
8334;BME280;4204;43.004;23.052;2022-12-07T09:55:03;93568.94;;;8.91;100.00
8334;BME280;4204;43.004;23.052;2022-12-07T09:57:32;93575.53;;;9.02;100.00
8334;BME280;4204;43.004;23.052;2022-12-07T10:00:10;93566.94;;;9.05;100.00
8334;BME280;4204;43.004;23.052;2022-12-07T10:02:41;93573.59;;;8.94;100.00
8334;BME280;4204;43.004;23.052;2022-12-07T10:05:13;93570.34;;;8.97;100.00
8334;BME280;4204;43.004;23.052;2022-12-07T10:07:41;93569.69;;;8.83;100.00
8334;BME280;4204;43.004;23.052;2022-12-07T10:10:14;93566.38;;;8.77;100.00
8334;BME280;4204;43.004;23.052;2022-12-07T10:13:01;93575.16;;;8.86;100.00
8334;BME280;4204;43.004;23.052;2022-12-07T10:15:49;93570.03;;;8.98;100.00
8334;BME280;4204;43.004;23.052;2022-12-07T10:18:21;93558.06;;;9.10;100.00
8334;BME280;4204;43.004;23.052;2022-12-07T10:21:05;93553.25;;;9.20;100.00
8334;BME280;4204;43.004;23.052;2022-12-07T10:23:35;93556.84;;;9.24;100.00
8334;BME280;4204;43.004;23.052;2022-12-07T10:26:26;93550.75;;;9.24;100.00
8334;BME280;4204;43.004;23.052;2022-12-07T10:28:54;93531.69;;;9.13;100.00
8334;BME280;4204;43.004;23.052;2022-12-07T10:31:24;93555.44;;;9.35;100.00
8334;BME280;4204;43.004;23.052;2022-12-07T10:33:53;93538.75;;;9.43;100.00
8334;BME280;4204;43.004;23.052;2022-12-07T10:36:25;93538.91;;;9.47;100.00
8334;BME280;4204;43.004;23.052;2022-12-07T10:38:59;93549.97;;;9.49;100.00
8334;BME280;4204;43.004;23.052;2022-12-07T10:41:27;93534.84;;;9.49;100.00
8334;BME280;4204;43.004;23.052;2022-12-07T10:43:56;93543.75;;;9.62;100.00
8334;BME280;4204;43.004;23.052;2022-12-07T10:46:49;93535.00;;;9.78;100.00
8334;BME280;4204;43.004;23.052;2022-12-07T10:52:32;93530.91;;;9.72;100.00
8334;BME280;4204;43.004;23.052;2022-12-07T10:55:16;93520.94;;;9.69;100.00
8334;BME280;4204;43.004;23.052;2022-12-07T10:57:59;93523.91;;;9.76;100.00
8334;BME280;4204;43.004;23.052;2022-12-07T11:00:36;93531.88;;;9.76;100.00
8334;BME280;4204;43.004;23.052;2022-12-07T11:03:41;93511.56;;;9.81;100.00
8334;BME280;4204;43.004;23.052;2022-12-07T11:06:20;93510.13;;;9.83;100.00
8334;BME280;4204;43.004;23.052;2022-12-07T11:09:03;93506.53;;;9.88;100.00
8334;BME280;4204;43.004;23.052;2022-12-07T11:11:35;93499.81;;;9.90;100.00
8334;BME280;4204;43.004;23.052;2022-12-07T11:14:15;93497.00;;;9.95;100.00
8334;BME280;4204;43.004;23.052;2022-12-07T11:16:55;93510.56;;;9.94;100.00
8334;BME280;4204;43.004;23.052;2022-12-07T11:19:46;93512.44;;;10.02;100.00
8334;BME280;4204;43.004;23.052;2022-12-07T11:22:23;93495.09;;;10.04;100.00
8334;BME280;4204;43.004;23.052;2022-12-07T11:25:00;93500.88;;;10.06;100.00
8334;BME280;4204;43.004;23.052;2022-12-07T11:27:37;93486.81;;;10.14;100.00
8334;BME280;4204;43.004;23.052;2022-12-07T11:30:13;93492.75;;;10.20;100.00
8334;BME280;4204;43.004;23.052;2022-12-07T11:33:02;93494.94;;;10.18;100.00
8334;BME280;4204;43.004;23.052;2022-12-07T11:35:41;93499.78;;;10.07;100.00
8334;BME280;4204;43.004;23.052;2022-12-07T11:38:15;93498.34;;;10.10;100.00
8334;BME280;4204;43.004;23.052;2022-12-07T11:40:45;93492.44;;;10.13;100.00
8334;BME280;4204;43.004;23.052;2022-12-07T11:43:20;93491.63;;;10.21;100.00
8334;BME280;4204;43.004;23.052;2022-12-07T11:45:54;93479.59;;;10.23;100.00
8334;BME280;4204;43.004;23.052;2022-12-07T11:48:30;93465.53;;;10.06;100.00
8334;BME280;4204;43.004;23.052;2022-12-07T11:51:02;93474.31;;;10.15;100.00
8334;BME280;4204;43.004;23.052;2022-12-07T11:53:34;93462.84;;;10.23;100.00
8334;BME280;4204;43.004;23.052;2022-12-07T11:56:07;93475.78;;;10.33;100.00
8334;BME280;4204;43.004;23.052;2022-12-07T11:58:48;93470.31;;;10.38;100.00
8334;BME280;4204;43.004;23.052;2022-12-07T12:01:39;93467.78;;;10.41;100.00
8334;BME280;4204;43.004;23.052;2022-12-07T12:04:22;93466.38;;;10.44;100.00
8334;BME280;4204;43.004;23.052;2022-12-07T12:06:54;93463.75;;;10.35;100.00
8334;BME280;4204;43.004;23.052;2022-12-07T12:09:26;93461.06;;;10.44;100.00
8334;BME280;4204;43.004;23.052;2022-12-07T12:12:16;93467.66;;;10.38;100.00
8334;BME280;4204;43.004;23.052;2022-12-07T12:14:57;93465.59;;;10.43;100.00
8334;BME280;4204;43.004;23.052;2022-12-07T12:17:53;93467.75;;;10.50;100.00
8334;BME280;4204;43.004;23.052;2022-12-07T12:20:27;93454.44;;;10.50;100.00
8334;BME280;4204;43.004;23.052;2022-12-07T12:23:01;93462.72;;;10.57;100.00
8334;BME280;4204;43.004;23.052;2022-12-07T12:25:38;93456.41;;;10.62;100.00
8334;BME280;4204;43.004;23.052;2022-12-07T12:28:20;93455.50;;;10.57;100.00
8334;BME280;4204;43.004;23.052;2022-12-07T12:31:05;93452.53;;;10.59;100.00
8334;BME280;4204;43.004;23.052;2022-12-07T12:33:35;93441.13;;;10.58;100.00
8334;BME280;4204;43.004;23.052;2022-12-07T12:36:22;93441.72;;;10.64;100.00
8334;BME280;4204;43.004;23.052;2022-12-07T12:39:08;93448.78;;;10.60;100.00
8334;BME280;4204;43.004;23.052;2022-12-07T12:41:56;93441.88;;;10.68;100.00
8334;BME280;4204;43.004;23.052;2022-12-07T12:47:54;93434.84;;;10.63;100.00
8334;BME280;4204;43.004;23.052;2022-12-07T12:50:30;93427.41;;;10.77;100.00
8334;BME280;4204;43.004;23.052;2022-12-07T12:53:05;93428.50;;;10.76;100.00
8334;BME280;4204;43.004;23.052;2022-12-07T12:56:13;93420.50;;;10.76;100.00
8334;BME280;4204;43.004;23.052;2022-12-07T12:58:47;93416.09;;;10.80;100.00
8334;BME280;4204;43.004;23.052;2022-12-07T13:01:39;93431.03;;;10.93;100.00
8334;BME280;4204;43.004;23.052;2022-12-07T13:04:38;93429.69;;;10.87;100.00
8334;BME280;4204;43.004;23.052;2022-12-07T13:07:53;93427.94;;;10.91;100.00
8334;BME280;4204;43.004;23.052;2022-12-07T13:10:37;93416.19;;;10.92;100.00
8334;BME280;4204;43.004;23.052;2022-12-07T13:13:29;93425.94;;;10.88;100.00
8334;BME280;4204;43.004;23.052;2022-12-07T13:22:40;93420.78;;;11.04;100.00
8334;BME280;4204;43.004;23.052;2022-12-07T13:25:11;93427.28;;;11.15;100.00
8334;BME280;4204;43.004;23.052;2022-12-07T13:27:41;93431.50;;;11.16;100.00
8334;BME280;4204;43.004;23.052;2022-12-07T13:30:18;93425.03;;;11.25;100.00
8334;BME280;4204;43.004;23.052;2022-12-07T13:32:52;93414.69;;;11.24;100.00
8334;BME280;4204;43.004;23.052;2022-12-07T13:35:32;93420.59;;;11.29;100.00
8334;BME280;4204;43.004;23.052;2022-12-07T13:38:02;93418.69;;;11.30;100.00
8334;BME280;4204;43.004;23.052;2022-12-07T13:40:31;93420.50;;;11.38;100.00
8334;BME280;4204;43.004;23.052;2022-12-07T13:43:00;93419.66;;;11.46;100.00
8334;BME280;4204;43.004;23.052;2022-12-07T13:45:30;93417.72;;;11.34;100.00
8334;BME280;4204;43.004;23.052;2022-12-07T13:48:22;93423.16;;;11.38;100.00
8334;BME280;4204;43.004;23.052;2022-12-07T13:50:56;93411.75;;;11.37;100.00